createdAt,value
2019-03-01T00:00:05.880Z,7.60
2019-03-01T00:02:39.988Z,4.57
2019-03-01T00:06:06.582Z,5.27
2019-03-01T00:09:53.594Z,7.40
2019-03-01T00:13:40.046Z,6.80
2019-03-01T00:16:42.990Z,6.40
2019-03-01T00:20:38.296Z,3.63
2019-03-01T00:24:12.188Z,6.73
2019-03-01T00:27:39.695Z,4.63
2019-03-01T00:31:07.156Z,3.70
2019-03-01T00:34:24.054Z,4.87
2019-03-01T00:37:55.014Z,5.87
2019-03-01T00:40:52.401Z,6.03
2019-03-01T00:44:06.100Z,7.80
2019-03-01T00:46:38.527Z,4.27
2019-03-01T00:49:10.910Z,3.80
2019-03-01T00:51:43.312Z,4.27
2019-03-01T00:54:15.687Z,4.47
2019-03-01T00:56:48.080Z,3.70
2019-03-01T00:59:20.383Z,6.37
2019-03-01T01:01:52.840Z,5.20
2019-03-01T01:04:25.206Z,4.53
2019-03-01T01:06:57.594Z,4.53
2019-03-01T01:09:29.973Z,6.27
2019-03-01T01:12:02.370Z,6.23
2019-03-01T01:14:34.738Z,4.77
2019-03-01T01:17:07.157Z,4.37
2019-03-01T01:19:39.526Z,4.33
2019-03-01T01:22:11.932Z,3.67
2019-03-01T01:24:44.307Z,5.17
2019-03-01T01:27:16.705Z,4.00
2019-03-01T01:29:49.070Z,5.07
2019-03-01T01:32:21.478Z,4.47
2019-03-01T01:34:53.857Z,3.30
2019-03-01T01:37:26.243Z,3.40
2019-03-01T01:39:58.614Z,4.93
2019-03-01T01:42:32.606Z,7.33
2019-03-01T01:45:05.408Z,8.97
2019-03-01T01:47:37.818Z,3.93
2019-03-01T01:50:10.631Z,5.47
2019-03-01T01:52:43.030Z,3.67
2019-03-01T01:55:15.329Z,5.03
2019-03-01T01:57:47.725Z,5.70
2019-03-01T02:00:20.121Z,4.57
2019-03-01T02:02:52.521Z,4.53
2019-03-01T02:05:24.882Z,5.20
2019-03-01T02:07:57.279Z,4.80
2019-03-01T02:10:29.712Z,4.27
2019-03-01T02:13:03.237Z,5.40
2019-03-01T02:15:35.687Z,4.13
2019-03-01T02:18:08.080Z,5.53
2019-03-01T02:20:40.313Z,3.67
2019-03-01T02:23:12.725Z,5.43
2019-03-01T02:25:45.093Z,4.80
2019-03-01T02:28:17.490Z,5.93
2019-03-01T02:30:50.302Z,4.70
2019-03-01T02:33:22.735Z,6.00
2019-03-01T02:35:55.101Z,5.40
2019-03-01T02:38:27.506Z,9.20
2019-03-01T02:40:59.873Z,5.93
2019-03-01T02:43:32.262Z,3.50
2019-03-01T02:46:04.655Z,4.83
2019-03-01T02:48:37.048Z,4.20
2019-03-01T02:51:09.432Z,6.27
2019-03-01T02:53:41.935Z,5.83
2019-03-01T02:56:14.303Z,5.07
2019-03-01T02:58:46.719Z,3.67
2019-03-01T03:01:19.121Z,5.07
2019-03-01T03:03:51.507Z,5.80
2019-03-01T03:06:45.901Z,6.33
2019-03-01T03:09:18.798Z,5.53
2019-03-01T03:11:51.166Z,5.07
2019-03-01T03:14:23.655Z,107.80
2019-03-01T03:16:56.172Z,3.77
2019-03-01T03:19:28.587Z,6.27
2019-03-01T03:22:00.959Z,7.33
2019-03-01T03:24:33.368Z,6.23
2019-03-01T03:27:05.749Z,4.43
2019-03-01T03:29:39.107Z,6.23
2019-03-01T03:32:11.486Z,4.33
2019-03-01T03:34:43.880Z,8.53
2019-03-01T03:37:16.314Z,5.47
2019-03-01T03:39:48.694Z,3.83
2019-03-01T03:42:21.062Z,5.90
2019-03-01T03:44:53.451Z,4.77
2019-03-01T03:47:25.918Z,4.57
2019-03-01T03:49:59.963Z,3.70
2019-03-01T03:52:32.342Z,3.67
2019-03-01T03:55:04.882Z,6.70
2019-03-01T03:57:37.246Z,7.03
2019-03-01T04:00:15.195Z,3.80
2019-03-01T04:02:47.564Z,4.43
2019-03-01T04:05:19.975Z,3.77
2019-03-01T04:07:52.436Z,3.73
2019-03-01T04:10:24.830Z,5.53
2019-03-01T04:12:57.221Z,3.70
2019-03-01T04:15:29.586Z,2.87
2019-03-01T04:18:01.987Z,3.27
2019-03-01T04:20:35.323Z,4.27
2019-03-01T04:23:07.726Z,4.60
2019-03-01T04:25:40.096Z,7.10
2019-03-01T04:28:12.502Z,4.27
2019-03-01T04:30:44.946Z,3.07
2019-03-01T04:33:17.268Z,4.37
2019-03-01T04:35:49.638Z,3.93
2019-03-01T04:38:22.033Z,5.17
2019-03-01T04:40:54.399Z,5.50
2019-03-01T04:43:26.712Z,3.37
2019-03-01T04:45:59.114Z,5.27
2019-03-01T04:48:31.510Z,3.30
2019-03-01T04:51:03.881Z,3.10
2019-03-01T04:53:36.273Z,3.20
2019-03-01T04:56:08.667Z,3.20
2019-03-01T04:58:41.080Z,2.90
2019-03-01T05:01:13.454Z,3.50
2019-03-01T05:03:45.850Z,5.87
2019-03-01T05:06:18.243Z,2.40
2019-03-01T05:08:50.640Z,2.70
2019-03-01T05:11:23.011Z,4.10
2019-03-01T05:13:55.406Z,3.87
2019-03-01T05:16:27.864Z,4.87
2019-03-01T05:19:00.253Z,3.83
2019-03-01T05:21:32.625Z,4.40
2019-03-01T05:24:05.017Z,3.80
2019-03-01T05:26:37.381Z,3.27
2019-03-01T05:29:09.801Z,3.47
2019-03-01T05:31:42.180Z,3.93
2019-03-01T05:34:14.577Z,3.53
2019-03-01T05:36:48.072Z,3.43
2019-03-01T05:39:20.399Z,4.57
2019-03-01T05:41:52.785Z,3.50
2019-03-01T05:44:25.183Z,3.47
2019-03-01T05:46:57.580Z,3.57
2019-03-01T05:49:29.978Z,4.17
2019-03-01T05:52:02.347Z,3.27
2019-03-01T05:54:34.732Z,5.03
2019-03-01T05:57:07.111Z,3.97
2019-03-01T05:59:39.511Z,3.20
2019-03-01T06:03:05.230Z,3.27
2019-03-01T06:05:40.791Z,3.20
2019-03-01T06:08:52.256Z,5.73
2019-03-01T06:12:46.424Z,3.33
2019-03-01T06:16:14.108Z,2.80
2019-03-01T06:19:33.688Z,3.43
2019-03-01T06:22:41.487Z,2.60
2019-03-01T06:26:33.258Z,4.80
2019-03-01T06:30:07.045Z,3.20
2019-03-01T06:33:38.614Z,4.50
2019-03-01T06:37:13.650Z,4.87
2019-03-01T06:40:40.042Z,3.30
2019-03-01T06:43:48.080Z,3.03
2019-03-01T06:47:39.302Z,4.43
2019-03-01T06:50:16.883Z,5.90
2019-03-01T06:52:49.273Z,3.87
2019-03-01T06:55:59.136Z,4.70
2019-03-01T06:58:42.297Z,3.57
2019-03-01T07:01:39.440Z,3.17
2019-03-01T07:04:18.708Z,2.70
2019-03-01T07:06:51.105Z,3.00
2019-03-01T07:09:23.473Z,2.77
2019-03-01T07:11:55.869Z,3.73
2019-03-01T07:14:28.248Z,2.50
2019-03-01T07:17:00.663Z,2.20
2019-03-01T07:19:33.097Z,3.77
2019-03-01T07:22:05.500Z,2.70
2019-03-01T07:24:37.874Z,2.37
2019-03-01T07:27:12.263Z,2.70
2019-03-01T07:29:44.343Z,2.40
2019-03-01T07:32:16.830Z,2.70
2019-03-01T07:34:49.213Z,2.50
2019-03-01T07:37:21.992Z,3.03
2019-03-01T07:39:54.465Z,3.43
2019-03-01T07:42:26.858Z,3.70
2019-03-01T07:45:00.332Z,3.13
2019-03-01T07:47:34.237Z,3.33
2019-03-01T07:50:08.516Z,2.63
2019-03-01T07:52:40.914Z,4.43
2019-03-01T07:55:13.416Z,3.63
2019-03-01T07:57:46.596Z,3.70
2019-03-01T08:00:20.345Z,2.80
2019-03-01T08:02:52.839Z,2.73
2019-03-01T08:05:25.211Z,2.00
2019-03-01T08:08:02.582Z,2.40
2019-03-01T08:10:31.695Z,2.03
2019-03-01T08:13:04.093Z,1.97
2019-03-01T08:15:36.561Z,2.47
2019-03-01T08:18:09.335Z,2.30
2019-03-01T08:20:41.808Z,3.10
2019-03-01T08:23:14.511Z,3.10
2019-03-01T08:25:48.758Z,3.20
2019-03-01T08:28:21.986Z,4.60
2019-03-01T08:30:56.382Z,2.90
2019-03-01T08:33:29.774Z,3.40
2019-03-01T08:36:05.360Z,3.13
2019-03-01T08:38:36.308Z,2.43
2019-03-01T08:41:08.688Z,2.63
2019-03-01T08:43:41.108Z,2.73
2019-03-01T08:46:13.502Z,2.23
2019-03-01T08:48:45.925Z,2.10
2019-03-01T08:51:18.440Z,1.80
2019-03-01T08:53:51.102Z,3.00
2019-03-01T08:56:26.115Z,2.10
2019-03-01T08:58:58.288Z,1.90
2019-03-01T09:01:31.788Z,4.90
2019-03-01T09:04:09.274Z,2.10
2019-03-01T09:06:41.921Z,2.70
2019-03-01T09:09:17.607Z,2.10
2019-03-01T09:11:48.599Z,3.60
2019-03-01T09:14:22.781Z,3.17
2019-03-01T09:16:55.009Z,2.57
2019-03-01T09:19:27.409Z,2.53
2019-03-01T09:21:59.812Z,2.43
2019-03-01T09:24:32.211Z,3.37
2019-03-01T09:27:04.592Z,3.13
2019-03-01T09:29:41.568Z,3.30
2019-03-01T09:32:11.057Z,3.27
2019-03-01T09:34:44.143Z,3.50
2019-03-01T09:37:16.508Z,8.30
2019-03-01T09:39:50.399Z,2.50
2019-03-01T09:42:22.990Z,3.03
2019-03-01T09:44:55.461Z,3.30
2019-03-01T09:47:28.100Z,3.70
2019-03-01T09:50:02.281Z,3.00
2019-03-01T09:52:37.479Z,3.30
2019-03-01T09:55:11.144Z,3.50
2019-03-01T09:57:43.872Z,2.67
2019-03-01T10:00:17.756Z,3.03
2019-03-01T10:02:50.152Z,3.17
2019-03-01T10:05:22.778Z,3.80
2019-03-01T10:07:55.447Z,3.57
2019-03-01T10:10:29.166Z,3.70
2019-03-01T10:13:02.180Z,3.10
2019-03-01T10:15:41.241Z,3.13
2019-03-01T10:18:12.982Z,3.30
2019-03-01T10:20:45.934Z,2.90
2019-03-01T10:23:18.314Z,3.60
2019-03-01T10:25:50.812Z,2.83
2019-03-01T10:28:23.376Z,3.47
2019-03-01T10:30:55.819Z,3.17
2019-03-01T10:33:30.302Z,3.23
2019-03-01T10:36:02.715Z,3.20
2019-03-01T10:38:35.163Z,3.13
2019-03-01T10:41:07.560Z,2.90
2019-03-01T10:43:40.286Z,2.77
2019-03-01T10:46:12.731Z,4.17
2019-03-01T10:48:45.307Z,3.40
2019-03-01T10:51:17.695Z,3.23
2019-03-01T10:53:50.066Z,3.33
2019-03-01T10:56:22.478Z,3.87
2019-03-01T10:58:54.965Z,5.27
2019-03-01T11:01:27.398Z,80.17
2019-03-01T11:03:59.818Z,33.97
2019-03-01T11:06:32.389Z,14.70
2019-03-01T11:09:06.892Z,10.97
2019-03-01T11:11:41.288Z,8.87
2019-03-01T11:14:14.082Z,8.43
2019-03-01T11:16:46.725Z,11.23
2019-03-01T11:19:19.360Z,13.33
2019-03-01T11:21:52.122Z,29.83
2019-03-01T11:24:26.647Z,44.87
2019-03-01T11:26:59.597Z,28.13
2019-03-01T11:29:32.442Z,15.63
2019-03-01T11:32:05.012Z,13.50
2019-03-01T11:34:38.031Z,11.43
2019-03-01T11:37:10.921Z,22.00
2019-03-01T11:39:43.741Z,20.37
2019-03-01T11:42:17.633Z,16.43
2019-03-01T11:44:50.539Z,11.20
2019-03-01T11:47:23.591Z,28.13
2019-03-01T11:49:56.885Z,11.97
2019-03-01T11:52:32.178Z,6.67
2019-03-01T11:55:23.870Z,4.53
2019-03-01T11:57:57.044Z,3.80
2019-03-01T12:00:31.926Z,3.70
2019-03-01T12:03:04.638Z,3.37
2019-03-01T12:05:37.032Z,3.57
2019-03-01T12:08:09.767Z,3.40
2019-03-01T12:10:42.992Z,2.93
2019-03-01T12:13:18.755Z,2.97
2019-03-01T12:15:51.264Z,4.40
2019-03-01T12:18:28.276Z,3.57
2019-03-01T12:21:00.983Z,3.33
2019-03-01T12:23:34.601Z,3.10
2019-03-01T12:26:06.978Z,4.07
2019-03-01T12:28:39.451Z,5.37
2019-03-01T12:31:11.863Z,5.40
2019-03-01T12:33:44.267Z,4.77
2019-03-01T12:36:16.752Z,4.50
2019-03-01T12:38:49.174Z,7.77
2019-03-01T12:41:21.571Z,7.00
2019-03-01T12:43:53.964Z,5.73
2019-03-01T12:46:26.595Z,5.30
2019-03-01T12:48:59.112Z,4.93
2019-03-01T12:51:31.478Z,5.83
2019-03-01T12:54:03.956Z,6.93
2019-03-01T12:56:36.330Z,9.00
2019-03-01T12:59:08.959Z,9.43
2019-03-01T13:02:00.697Z,10.07
2019-03-01T13:04:33.123Z,11.60
2019-03-01T13:07:05.580Z,10.17
2019-03-01T13:09:38.167Z,10.23
2019-03-01T13:12:11.636Z,12.57
2019-03-01T13:14:44.118Z,12.27
2019-03-01T13:17:16.872Z,11.80
2019-03-01T13:19:49.264Z,12.60
2019-03-01T13:22:24.726Z,10.60
2019-03-01T13:24:55.777Z,11.27
2019-03-01T13:27:28.167Z,10.70
2019-03-01T13:30:00.515Z,10.53
2019-03-01T13:32:32.905Z,10.93
2019-03-01T13:35:18.133Z,10.97
2019-03-01T13:37:56.835Z,10.90
2019-03-01T13:40:29.391Z,12.03
2019-03-01T13:43:04.134Z,11.80
2019-03-01T13:45:36.667Z,11.23
2019-03-01T13:48:09.095Z,10.97
2019-03-01T13:50:42.433Z,10.83
2019-03-01T13:53:15.071Z,11.80
2019-03-01T13:55:49.959Z,13.53
2019-03-01T13:58:26.758Z,13.40
2019-03-01T14:00:56.594Z,14.77
2019-03-01T14:03:29.082Z,15.33
2019-03-01T14:06:02.577Z,17.90
2019-03-01T14:08:37.502Z,16.80
2019-03-01T14:11:10.043Z,14.43
2019-03-01T14:13:42.440Z,19.43
2019-03-01T14:16:17.116Z,17.40
2019-03-01T14:18:49.216Z,17.43
2019-03-01T14:21:22.251Z,18.83
2019-03-01T14:23:54.790Z,19.17
2019-03-01T14:26:27.261Z,18.77
2019-03-01T14:28:59.994Z,22.70
2019-03-01T14:31:32.536Z,20.20
2019-03-01T14:34:08.309Z,22.73
2019-03-01T14:36:43.169Z,20.30
2019-03-01T14:39:18.660Z,19.83
2019-03-01T14:41:51.081Z,19.23
2019-03-01T14:44:23.880Z,20.77
2019-03-01T14:47:00.062Z,23.20
2019-03-01T14:49:53.993Z,23.80
2019-03-01T14:52:32.185Z,22.87
2019-03-01T14:55:05.325Z,22.80
2019-03-01T14:57:47.792Z,23.83
2019-03-01T15:01:14.728Z,21.77
2019-03-01T15:03:49.874Z,25.97
2019-03-01T15:06:22.334Z,26.73
2019-03-01T15:08:56.896Z,26.57
2019-03-01T15:11:29.460Z,26.83
2019-03-01T15:14:01.968Z,28.03
2019-03-01T15:16:34.438Z,27.60
2019-03-01T15:19:09.177Z,29.50
2019-03-01T15:21:41.763Z,28.87
2019-03-01T15:24:14.589Z,31.43
2019-03-01T15:26:46.319Z,30.53
2019-03-01T15:29:19.673Z,31.43
2019-03-01T15:31:54.995Z,33.97
2019-03-01T15:34:27.262Z,32.80
2019-03-01T15:36:59.702Z,32.90
2019-03-01T15:39:32.099Z,33.67
2019-03-01T15:42:04.640Z,35.23
2019-03-01T15:44:37.106Z,34.83
2019-03-01T15:47:09.664Z,34.57
2019-03-01T15:49:42.745Z,38.23
2019-03-01T15:52:15.299Z,39.67
2019-03-01T15:54:48.341Z,40.73
2019-03-01T15:57:20.879Z,39.77
2019-03-01T15:59:53.534Z,41.17
2019-03-01T16:02:26.004Z,42.43
2019-03-01T16:04:59.513Z,41.40
2019-03-01T16:07:32.302Z,43.00
2019-03-01T16:10:08.521Z,42.73
2019-03-01T16:12:40.949Z,43.33
2019-03-01T16:15:14.122Z,42.63
2019-03-01T16:17:47.368Z,38.53
2019-03-01T16:20:19.966Z,45.63
2019-03-01T16:22:54.245Z,43.20
2019-03-01T16:25:26.856Z,39.67
2019-03-01T16:27:59.808Z,46.30
2019-03-01T16:30:32.951Z,40.90
2019-03-01T16:33:06.066Z,45.10
2019-03-01T16:35:38.669Z,38.37
2019-03-01T16:38:12.350Z,39.97
2019-03-01T16:40:44.837Z,38.87
2019-03-01T16:43:17.257Z,47.33
2019-03-01T16:45:49.698Z,41.67
2019-03-01T16:48:22.205Z,43.37
2019-03-01T16:50:54.981Z,34.73
2019-03-01T16:53:27.575Z,42.90
2019-03-01T16:56:02.591Z,39.47
2019-03-01T16:58:34.097Z,49.07
2019-03-01T17:01:06.494Z,42.97
2019-03-01T17:03:38.915Z,49.53
2019-03-01T17:06:13.936Z,43.50
2019-03-01T17:08:45.420Z,38.80
2019-03-01T17:11:19.899Z,42.60
2019-03-01T17:13:52.349Z,39.13
2019-03-01T17:16:25.821Z,42.37
2019-03-01T17:18:58.230Z,43.17
2019-03-01T17:21:30.625Z,41.70
2019-03-01T17:24:03.029Z,39.33
2019-03-01T17:26:36.491Z,35.53
2019-03-01T17:29:08.926Z,41.53
2019-03-01T17:31:41.319Z,37.30
2019-03-01T17:34:13.732Z,42.60
2019-03-01T17:36:46.120Z,39.73
2019-03-01T17:39:20.121Z,38.57
2019-03-01T17:41:52.587Z,38.83
2019-03-01T17:44:25.000Z,38.27
2019-03-01T17:46:57.389Z,38.17
2019-03-01T17:49:32.894Z,37.93
2019-03-01T17:52:03.915Z,38.43
2019-03-01T17:54:36.311Z,42.37
2019-03-01T17:57:08.721Z,43.10
2019-03-01T17:59:41.145Z,45.67
2019-03-01T18:02:14.971Z,40.47
2019-03-01T18:04:47.640Z,47.30
2019-03-01T18:07:23.695Z,47.87
2019-03-01T18:09:56.176Z,41.00
2019-03-01T18:12:28.675Z,42.07
2019-03-01T18:15:01.142Z,42.13
2019-03-01T18:17:36.583Z,42.00
2019-03-01T18:20:08.936Z,43.23
2019-03-01T18:22:41.305Z,41.20
2019-03-01T18:25:13.769Z,42.33
2019-03-01T18:27:46.165Z,45.33
2019-03-01T18:30:20.997Z,43.73
2019-03-01T18:32:54.601Z,41.30
2019-03-01T18:35:27.014Z,43.43
2019-03-01T18:37:59.451Z,41.60
2019-03-01T18:40:32.061Z,42.70
2019-03-01T18:43:04.507Z,44.40
2019-03-01T18:45:38.451Z,42.93
2019-03-01T18:48:11.057Z,39.17
2019-03-01T18:50:43.466Z,42.63
2019-03-01T18:53:15.958Z,40.00
2019-03-01T18:55:49.583Z,39.40
2019-03-01T18:58:22.683Z,41.30
2019-03-01T19:00:55.187Z,38.10
2019-03-01T19:03:27.632Z,41.23
2019-03-01T19:06:00.125Z,37.90
2019-03-01T19:08:32.590Z,40.17
2019-03-01T19:11:05.090Z,39.60
2019-03-01T19:13:37.615Z,41.63
2019-03-01T19:16:10.053Z,37.43
2019-03-01T19:18:42.439Z,34.27
2019-03-01T19:21:17.409Z,35.47
2019-03-01T19:23:48.939Z,39.63
2019-03-01T19:26:21.358Z,38.33
2019-03-01T19:28:53.746Z,39.40
2019-03-01T19:31:26.278Z,37.53
2019-03-01T19:33:59.050Z,38.10
2019-03-01T19:36:31.505Z,36.60
2019-03-01T19:39:04.559Z,39.87
2019-03-01T19:41:38.574Z,43.17
2019-03-01T19:44:11.000Z,42.77
2019-03-01T19:46:43.409Z,37.20
2019-03-01T19:49:15.829Z,41.23
2019-03-01T19:51:48.238Z,36.70
2019-03-01T19:54:20.665Z,38.43
2019-03-01T19:56:53.072Z,35.70
2019-03-01T19:59:25.551Z,39.63
2019-03-01T20:01:58.024Z,40.93
2019-03-01T20:04:31.619Z,42.47
2019-03-01T20:07:04.002Z,38.57
2019-03-01T20:09:36.576Z,39.93
2019-03-01T20:12:10.461Z,39.43
2019-03-01T20:14:42.843Z,39.30
2019-03-01T20:17:15.280Z,44.00
2019-03-01T20:19:47.681Z,42.87
2019-03-01T20:22:20.338Z,41.40
2019-03-01T20:24:52.728Z,43.73
2019-03-01T20:27:25.219Z,44.87
2019-03-01T20:30:00.245Z,47.27
2019-03-01T20:32:31.752Z,47.67
2019-03-01T20:35:05.278Z,41.93
2019-03-01T20:37:39.984Z,40.57
2019-03-01T20:40:12.514Z,39.50
2019-03-01T20:42:44.938Z,46.30
2019-03-01T20:45:25.901Z,40.87
2019-03-01T20:47:58.056Z,39.53
2019-03-01T20:50:30.472Z,38.43
2019-03-01T20:53:04.250Z,39.80
2019-03-01T20:55:37.243Z,44.07
2019-03-01T20:58:10.621Z,46.23
2019-03-01T21:00:43.043Z,47.77
2019-03-01T21:03:15.534Z,51.43
2019-03-01T21:05:47.938Z,53.07
2019-03-01T21:08:21.438Z,48.83
2019-03-01T21:10:53.818Z,43.37
2019-03-01T21:13:26.253Z,43.93
2019-03-01T21:15:58.666Z,42.60
2019-03-01T21:18:34.090Z,38.60
2019-03-01T21:21:05.248Z,35.00
2019-03-01T21:23:37.646Z,29.60
2019-03-01T21:26:12.103Z,28.73
2019-03-01T21:28:44.195Z,22.37
2019-03-01T21:31:16.624Z,16.77
2019-03-01T21:33:49.051Z,16.03
2019-03-01T21:36:23.012Z,15.27
2019-03-01T21:38:55.607Z,18.33
2019-03-01T21:41:27.986Z,15.33
2019-03-01T21:44:00.390Z,14.07
2019-03-01T21:46:34.130Z,12.87
2019-03-01T21:49:06.974Z,12.73
2019-03-01T21:51:39.300Z,14.33
2019-03-01T21:54:12.641Z,12.53
2019-03-01T21:56:55.523Z,12.60
2019-03-01T21:59:19.920Z,11.47
2019-03-01T22:01:52.883Z,19.20
2019-03-01T22:04:25.550Z,11.50
2019-03-01T22:07:01.964Z,12.67
2019-03-01T22:09:32.127Z,12.47
2019-03-01T22:12:04.510Z,14.60
2019-03-01T22:14:36.929Z,14.43
2019-03-01T22:17:10.383Z,14.07
2019-03-01T22:19:42.996Z,16.10
2019-03-01T22:22:15.383Z,15.30
2019-03-01T22:24:47.803Z,14.50
2019-03-01T22:27:21.592Z,13.90
2019-03-01T22:29:54.326Z,13.70
2019-03-01T22:32:26.755Z,15.17
2019-03-01T22:34:59.166Z,16.23
2019-03-01T22:37:31.584Z,17.63
2019-03-01T22:40:04.039Z,19.50
2019-03-01T22:42:36.441Z,17.83
2019-03-01T22:45:13.600Z,19.50
2019-03-01T22:47:46.117Z,17.73
2019-03-01T22:50:18.591Z,16.83
2019-03-01T22:52:50.988Z,17.80
2019-03-01T22:55:23.403Z,18.07
2019-03-01T22:57:57.781Z,19.80
2019-03-01T23:01:09.443Z,16.80
2019-03-01T23:03:43.997Z,16.80
2019-03-01T23:06:16.411Z,17.23
2019-03-01T23:08:48.873Z,18.43
2019-03-01T23:11:22.363Z,18.30
2019-03-01T23:13:55.747Z,17.13
2019-03-01T23:16:29.049Z,17.97
2019-03-01T23:19:01.438Z,16.47
2019-03-01T23:21:35.904Z,17.93
2019-03-01T23:24:07.960Z,18.27
2019-03-01T23:26:40.381Z,18.17
2019-03-01T23:29:15.551Z,18.23
2019-03-01T23:31:49.846Z,18.87
2019-03-01T23:34:22.278Z,22.10
2019-03-01T23:36:54.735Z,17.40
2019-03-01T23:39:27.123Z,19.80
2019-03-01T23:41:59.543Z,21.00
2019-03-01T23:44:31.926Z,19.20
2019-03-01T23:47:05.313Z,18.97
2019-03-01T23:49:37.696Z,17.47
2019-03-01T23:52:10.121Z,17.70
2019-03-01T23:54:44.259Z,18.80
2019-03-01T23:57:16.623Z,21.73
2019-03-01T23:59:49.016Z,17.37
